createdAt,value
2022-11-19T00:02:19.327Z,8.00
2022-11-19T00:04:48.260Z,8.00
2022-11-19T00:07:17.542Z,8.00
2022-11-19T00:09:44.330Z,8.00
2022-11-19T00:12:29.870Z,8.00
2022-11-19T00:14:59.022Z,8.00
2022-11-19T00:17:25.753Z,8.00
2022-11-19T00:19:52.485Z,8.00
2022-11-19T00:22:19.207Z,8.00
2022-11-19T00:24:45.879Z,7.90
2022-11-19T00:27:17.258Z,7.90
2022-11-19T00:29:46.108Z,8.00
2022-11-19T00:32:12.838Z,7.90
2022-11-19T00:34:41.838Z,7.90
2022-11-19T00:37:11.025Z,7.90
2022-11-19T00:39:37.786Z,7.90
2022-11-19T00:42:06.853Z,7.80
2022-11-19T00:44:37.158Z,7.90
2022-11-19T00:47:08.788Z,7.90
2022-11-19T00:49:40.253Z,7.90
2022-11-19T00:52:06.940Z,7.90
2022-11-19T00:54:35.825Z,7.80
2022-11-19T00:57:04.736Z,7.70
2022-11-19T00:59:31.392Z,7.60
2022-11-19T01:02:02.472Z,7.50
2022-11-19T01:04:31.578Z,7.60
2022-11-19T01:07:00.732Z,7.60
2022-11-19T01:09:29.956Z,7.50
2022-11-19T01:12:01.320Z,7.40
2022-11-19T01:14:30.198Z,7.40
2022-11-19T01:16:56.961Z,7.40
2022-11-19T01:19:26.101Z,7.50
2022-11-19T01:21:55.012Z,7.40
2022-11-19T01:24:24.226Z,7.40
2022-11-19T01:26:55.287Z,7.40
2022-11-19T01:29:24.348Z,7.50
2022-11-19T01:31:53.143Z,7.50
2022-11-19T01:34:19.881Z,7.50
2022-11-19T01:36:46.603Z,7.50
2022-11-19T01:39:15.841Z,7.50
2022-11-19T01:41:42.518Z,7.50
2022-11-19T01:44:47.922Z,7.60
2022-11-19T01:47:16.833Z,7.50
2022-11-19T01:49:45.826Z,7.60
2022-11-19T01:52:14.994Z,7.50
2022-11-19T01:54:49.597Z,7.60
2022-11-19T01:57:18.124Z,7.60
2022-11-19T01:59:48.763Z,7.70
2022-11-19T02:02:19.855Z,7.60
2022-11-19T02:04:51.696Z,7.70
2022-11-19T02:07:29.095Z,7.70
2022-11-19T02:10:03.024Z,7.60
2022-11-19T02:12:44.511Z,7.60
2022-11-19T02:15:29.478Z,7.60
2022-11-19T02:18:30.366Z,7.70
2022-11-19T02:20:57.057Z,7.60
2022-11-19T02:24:01.691Z,7.60
2022-11-19T02:27:03.982Z,7.60
2022-11-19T02:29:31.489Z,7.60
2022-11-19T02:32:18.273Z,7.60
2022-11-19T02:34:56.715Z,7.60
2022-11-19T02:37:38.590Z,7.60
2022-11-19T02:40:05.430Z,7.60
2022-11-19T02:42:48.285Z,7.60
2022-11-19T02:45:28.691Z,7.60
2022-11-19T02:48:03.319Z,7.60
2022-11-19T02:50:43.378Z,7.60
2022-11-19T02:53:12.758Z,7.60
2022-11-19T02:56:00.102Z,7.60
2022-11-19T02:58:45.349Z,7.70
2022-11-19T03:01:30.984Z,7.70
2022-11-19T03:04:16.209Z,7.70
2022-11-19T03:06:42.996Z,7.70
2022-11-19T03:09:10.191Z,7.60
2022-11-19T03:11:39.074Z,7.60
2022-11-19T03:14:52.624Z,7.60
2022-11-19T03:17:27.290Z,7.60
2022-11-19T03:20:18.214Z,7.70
2022-11-19T03:23:06.333Z,7.60
2022-11-19T03:25:43.904Z,7.70
2022-11-19T03:28:15.267Z,7.60
2022-11-19T03:30:45.421Z,7.60
2022-11-19T03:33:22.036Z,7.60
2022-11-19T03:35:53.373Z,7.60
2022-11-19T03:38:27.614Z,7.60
2022-11-19T03:40:56.837Z,7.70
2022-11-19T03:43:29.307Z,7.70
2022-11-19T03:46:01.665Z,7.70
2022-11-19T03:48:33.246Z,7.70
2022-11-19T03:51:22.288Z,7.70
2022-11-19T03:53:49.398Z,7.70
2022-11-19T03:56:24.201Z,7.70
2022-11-19T03:58:53.459Z,7.70
2022-11-19T04:01:21.188Z,7.70
2022-11-19T04:04:08.865Z,7.70
2022-11-19T04:06:38.151Z,7.70
2022-11-19T04:09:04.914Z,7.70
2022-11-19T04:11:34.058Z,7.70
2022-11-19T04:14:02.925Z,7.70
2022-11-19T04:16:29.796Z,7.70
2022-11-19T04:18:56.495Z,7.70
2022-11-19T04:21:27.603Z,7.70
2022-11-19T04:23:54.406Z,7.70
2022-11-19T04:26:23.609Z,7.70
2022-11-19T04:28:53.274Z,7.60
2022-11-19T04:31:20.018Z,7.70
2022-11-19T04:33:46.796Z,7.70
2022-11-19T04:36:13.655Z,7.70
2022-11-19T04:38:43.004Z,7.80
2022-11-19T04:41:12.036Z,7.70
2022-11-19T04:43:38.833Z,7.70
2022-11-19T04:46:08.239Z,7.70
2022-11-19T04:48:37.266Z,7.70
2022-11-19T04:51:08.625Z,7.70
2022-11-19T04:53:37.815Z,7.70
2022-11-19T04:56:04.609Z,7.70
2022-11-19T04:58:31.716Z,7.70
2022-11-19T05:01:00.670Z,7.70
2022-11-19T05:03:29.539Z,7.70
2022-11-19T05:05:56.257Z,7.70
2022-11-19T05:08:25.534Z,7.70
2022-11-19T05:10:52.555Z,7.70
2022-11-19T05:13:21.605Z,7.70
2022-11-19T05:15:48.287Z,7.60
2022-11-19T05:18:15.203Z,7.60
2022-11-19T05:20:44.064Z,7.60
2022-11-19T05:23:14.202Z,7.60
2022-11-19T05:25:40.924Z,7.60
2022-11-19T05:28:07.692Z,7.60
2022-11-19T05:30:34.528Z,7.60
2022-11-19T05:33:01.620Z,7.60
2022-11-19T05:35:30.548Z,7.60
2022-11-19T05:37:57.203Z,7.60
2022-11-19T05:40:24.163Z,7.60
2022-11-19T05:42:55.626Z,7.70
2022-11-19T05:45:22.379Z,7.70
2022-11-19T05:47:54.446Z,7.70
2022-11-19T05:50:23.531Z,7.70
2022-11-19T05:52:52.568Z,7.70
2022-11-19T05:55:21.474Z,7.80
2022-11-19T05:57:50.450Z,7.70
2022-11-19T06:00:18.431Z,7.70
2022-11-19T06:02:47.441Z,7.70
2022-11-19T06:05:14.270Z,7.70
2022-11-19T06:07:43.297Z,7.70
2022-11-19T06:10:12.327Z,7.80
2022-11-19T06:12:45.521Z,7.80
2022-11-19T06:15:18.532Z,7.80
2022-11-19T06:17:45.246Z,7.90
2022-11-19T06:20:12.041Z,7.80
2022-11-19T06:22:40.048Z,7.80
2022-11-19T06:25:07.946Z,7.80
2022-11-19T06:27:37.202Z,7.80
2022-11-19T06:30:07.178Z,7.80
2022-11-19T06:32:36.195Z,7.70
2022-11-19T06:35:03.106Z,7.80
2022-11-19T06:37:31.956Z,7.80
2022-11-19T06:39:58.689Z,7.80
2022-11-19T06:42:36.897Z,7.90
2022-11-19T06:45:12.573Z,8.00
2022-11-19T06:47:40.983Z,8.00
2022-11-19T06:50:13.338Z,8.10
2022-11-19T06:52:42.287Z,8.10
2022-11-19T06:55:09.242Z,8.10
2022-11-19T06:57:40.596Z,8.10
2022-11-19T07:00:07.979Z,8.10
2022-11-19T07:02:37.725Z,8.10
2022-11-19T07:05:06.013Z,8.10
2022-11-19T07:07:37.450Z,8.00
2022-11-19T07:10:07.260Z,8.00
2022-11-19T07:12:34.227Z,8.00
2022-11-19T07:15:04.739Z,8.10
2022-11-19T07:17:36.135Z,8.10
2022-11-19T07:20:04.950Z,8.20
2022-11-19T07:22:31.695Z,8.20
2022-11-19T07:24:58.426Z,8.20
2022-11-19T07:27:29.581Z,8.20
2022-11-19T07:30:02.190Z,8.20
2022-11-19T07:32:28.947Z,8.20
2022-11-19T07:34:58.024Z,8.20
2022-11-19T07:37:24.764Z,8.30
2022-11-19T07:39:53.919Z,8.40
2022-11-19T07:42:41.694Z,8.40
2022-11-19T07:45:09.695Z,8.30
2022-11-19T07:47:36.543Z,8.30
2022-11-19T07:50:06.563Z,8.30
2022-11-19T07:52:33.355Z,8.30
2022-11-19T07:55:02.676Z,8.30
2022-11-19T07:57:31.955Z,8.30
2022-11-19T07:59:58.860Z,8.30
2022-11-19T08:02:28.069Z,8.40
2022-11-19T08:04:54.782Z,8.40
2022-11-19T08:07:21.679Z,8.40
2022-11-19T08:09:50.641Z,8.30
2022-11-19T08:12:17.368Z,8.40
2022-11-19T08:14:46.779Z,8.40
2022-11-19T08:17:31.798Z,8.50
2022-11-19T08:20:03.062Z,8.60
2022-11-19T08:22:29.818Z,8.60
2022-11-19T08:24:59.000Z,8.60
2022-11-19T08:27:28.185Z,8.60
2022-11-19T08:29:55.050Z,8.60
2022-11-19T08:32:24.006Z,8.60
2022-11-19T08:34:50.806Z,8.70
2022-11-19T08:37:17.962Z,8.80
2022-11-19T08:39:44.740Z,8.90
2022-11-19T08:42:32.950Z,9.00
2022-11-19T08:45:02.195Z,9.20
2022-11-19T08:47:28.913Z,9.30
2022-11-19T08:49:56.023Z,9.30
2022-11-19T08:52:25.439Z,9.40
2022-11-19T08:54:54.402Z,9.40
2022-11-19T08:57:25.675Z,9.40
2022-11-19T09:00:05.933Z,9.50
2022-11-19T09:02:35.513Z,9.60
2022-11-19T09:05:04.581Z,9.60
2022-11-19T09:07:33.548Z,9.50
2022-11-19T09:10:00.283Z,9.60
2022-11-19T09:12:30.381Z,9.60
2022-11-19T09:15:01.912Z,9.60
2022-11-19T09:17:33.866Z,9.70
2022-11-19T09:20:04.055Z,9.70
2022-11-19T09:22:33.239Z,9.70
2022-11-19T09:25:00.073Z,9.70
2022-11-19T09:27:28.842Z,9.70
2022-11-19T09:29:55.740Z,9.70
2022-11-19T09:32:25.403Z,9.70
2022-11-19T09:34:52.443Z,9.70
2022-11-19T09:37:21.851Z,9.70
2022-11-19T09:39:50.871Z,9.70
2022-11-19T09:42:38.034Z,9.70
2022-11-19T09:45:04.750Z,9.70
2022-11-19T09:47:52.023Z,9.60
2022-11-19T09:50:22.573Z,9.60
2022-11-19T09:53:00.315Z,9.50
2022-11-19T09:55:34.989Z,9.60
2022-11-19T09:58:07.447Z,9.70
2022-11-19T10:00:36.464Z,9.70
2022-11-19T10:03:13.464Z,9.60
2022-11-19T10:06:08.062Z,9.50
2022-11-19T10:08:59.739Z,9.40
2022-11-19T10:11:40.506Z,9.40
2022-11-19T10:14:40.551Z,9.60
2022-11-19T10:17:19.785Z,9.70
2022-11-19T10:20:12.962Z,9.80
2022-11-19T10:23:09.027Z,9.80
2022-11-19T10:25:50.002Z,9.80
2022-11-19T10:28:25.407Z,9.90
2022-11-19T10:31:00.511Z,9.90
2022-11-19T10:33:44.206Z,9.80
2022-11-19T10:36:29.388Z,9.90
2022-11-19T10:39:32.748Z,9.90
2022-11-19T10:42:08.115Z,10.00
2022-11-19T10:44:47.816Z,10.00
2022-11-19T10:47:20.451Z,10.00
2022-11-19T10:49:54.795Z,10.00
2022-11-19T10:52:42.495Z,9.90
2022-11-19T10:55:15.357Z,9.80
2022-11-19T10:57:42.419Z,9.70
2022-11-19T11:00:12.556Z,9.70
2022-11-19T11:02:51.202Z,9.70
2022-11-19T11:05:18.842Z,9.50
2022-11-19T11:07:49.788Z,9.50
2022-11-19T11:10:48.400Z,9.40
2022-11-19T11:13:54.085Z,9.40
2022-11-19T11:16:28.263Z,9.40
2022-11-19T11:19:00.907Z,9.40
2022-11-19T11:21:39.681Z,9.50
2022-11-19T11:24:07.385Z,9.50
2022-11-19T11:26:37.951Z,9.50
2022-11-19T11:29:12.382Z,9.50
2022-11-19T11:31:44.734Z,9.50
2022-11-19T11:34:35.802Z,9.70
2022-11-19T11:37:06.761Z,9.80
2022-11-19T11:39:39.094Z,10.00
2022-11-19T11:42:17.575Z,10.20
2022-11-19T11:45:04.144Z,10.30
2022-11-19T11:47:36.485Z,10.40
2022-11-19T11:50:17.343Z,10.40
2022-11-19T11:52:49.294Z,10.40
2022-11-19T11:55:31.648Z,10.30
2022-11-19T11:58:08.674Z,10.20
2022-11-19T12:00:35.393Z,10.10
2022-11-19T12:03:13.716Z,9.90
2022-11-19T12:06:06.023Z,9.90
2022-11-19T12:08:51.310Z,9.80
2022-11-19T12:11:58.052Z,9.70
2022-11-19T12:14:38.914Z,9.80
2022-11-19T12:17:27.255Z,9.80
2022-11-19T12:20:03.087Z,9.70
2022-11-19T12:22:42.744Z,9.70
2022-11-19T12:25:25.109Z,9.70
2022-11-19T12:28:35.622Z,9.70
2022-11-19T12:31:16.972Z,9.70
2022-11-19T12:34:03.806Z,9.70
2022-11-19T12:36:42.172Z,9.70
2022-11-19T12:39:53.236Z,9.40
2022-11-19T12:42:25.166Z,9.20
2022-11-19T12:45:19.126Z,9.10
2022-11-19T12:48:14.547Z,9.10
2022-11-19T12:51:23.562Z,9.10
2022-11-19T12:54:33.378Z,9.10
2022-11-19T12:57:23.226Z,9.20
2022-11-19T13:00:04.604Z,9.10
2022-11-19T13:02:52.631Z,9.20
2022-11-19T13:05:31.970Z,9.20
2022-11-19T13:08:06.497Z,9.10
2022-11-19T13:10:44.867Z,9.00
2022-11-19T13:13:19.420Z,9.10
2022-11-19T13:15:57.043Z,9.10
2022-11-19T13:18:30.790Z,9.10
2022-11-19T13:21:04.482Z,9.00
2022-11-19T13:23:40.504Z,9.00
2022-11-19T13:26:28.337Z,8.90
2022-11-19T13:29:42.243Z,8.90
2022-11-19T13:32:22.852Z,9.00
2022-11-19T13:34:58.979Z,9.00
2022-11-19T13:37:41.753Z,9.00
2022-11-19T13:40:30.199Z,8.90
2022-11-19T13:43:31.538Z,8.80
2022-11-19T13:46:21.782Z,8.90
2022-11-19T13:49:03.343Z,8.80
2022-11-19T13:51:42.473Z,8.80
2022-11-19T13:54:22.027Z,8.80
2022-11-19T13:56:55.610Z,8.80
2022-11-19T13:59:28.062Z,8.80
2022-11-19T14:02:11.730Z,8.70
2022-11-19T14:05:12.661Z,8.70
2022-11-19T14:08:21.857Z,8.60
2022-11-19T14:11:25.490Z,8.50
2022-11-19T14:14:04.329Z,8.50
2022-11-19T14:17:06.831Z,8.50
2022-11-19T14:20:12.382Z,8.60
2022-11-19T14:23:02.056Z,8.60
2022-11-19T14:26:08.242Z,8.70
2022-11-19T14:28:47.791Z,8.70
2022-11-19T14:31:16.157Z,8.70
2022-11-19T14:33:48.964Z,8.70
2022-11-19T14:36:43.494Z,8.70
2022-11-19T14:39:40.583Z,8.70
2022-11-19T14:42:22.311Z,8.70
2022-11-19T14:45:03.561Z,8.70
2022-11-19T14:47:40.412Z,8.70
2022-11-19T14:50:29.602Z,8.70
2022-11-19T14:53:01.084Z,8.70
2022-11-19T14:55:34.536Z,8.60
2022-11-19T14:58:19.524Z,8.60
2022-11-19T15:00:49.035Z,8.70
2022-11-19T15:03:24.119Z,8.70
2022-11-19T15:05:53.167Z,8.70
2022-11-19T15:08:22.095Z,8.60
2022-11-19T15:11:10.641Z,8.60
2022-11-19T15:13:40.145Z,8.60
2022-11-19T15:16:11.765Z,8.50
2022-11-19T15:18:43.645Z,8.50
2022-11-19T15:21:13.370Z,8.50
2022-11-19T15:24:08.019Z,8.50
2022-11-19T15:27:02.516Z,8.50
2022-11-19T15:29:59.590Z,8.50
2022-11-19T15:32:52.940Z,8.50
2022-11-19T15:35:21.819Z,8.50
2022-11-19T15:37:54.065Z,8.50
2022-11-19T15:40:30.848Z,8.60
2022-11-19T15:43:23.451Z,8.60
2022-11-19T15:46:01.087Z,8.60
2022-11-19T15:48:56.563Z,8.50
2022-11-19T15:51:25.870Z,8.50
2022-11-19T15:54:04.952Z,8.50
2022-11-19T15:56:53.128Z,8.50
2022-11-19T15:59:21.005Z,8.50
2022-11-19T16:02:03.187Z,8.40
2022-11-19T16:04:38.647Z,8.40
2022-11-19T16:07:08.834Z,8.30
2022-11-19T16:09:38.529Z,8.30
2022-11-19T16:12:37.275Z,8.30
2022-11-19T16:15:39.964Z,8.40
2022-11-19T16:18:20.016Z,8.40
2022-11-19T16:20:50.322Z,8.30
2022-11-19T16:23:25.501Z,8.30
2022-11-19T16:25:55.498Z,8.30
2022-11-19T16:28:30.446Z,8.40
2022-11-19T16:31:05.052Z,8.40
2022-11-19T16:33:33.213Z,8.40
2022-11-19T16:36:29.870Z,8.50
2022-11-19T16:38:57.248Z,8.50
2022-11-19T16:41:45.390Z,8.50
2022-11-19T16:44:18.826Z,8.50
2022-11-19T16:46:46.277Z,8.50
2022-11-19T16:49:32.030Z,8.50
2022-11-19T16:52:03.042Z,8.50
2022-11-19T16:54:52.378Z,8.40
2022-11-19T16:57:27.280Z,8.40
2022-11-19T17:00:24.504Z,8.50
2022-11-19T17:02:51.767Z,8.50
2022-11-19T17:05:22.318Z,8.40
2022-11-19T17:08:03.589Z,8.40
2022-11-19T17:10:32.763Z,8.30
2022-11-19T17:13:23.672Z,8.30
2022-11-19T17:15:52.643Z,8.30
2022-11-19T17:18:34.895Z,8.20
2022-11-19T17:21:20.263Z,8.10
2022-11-19T17:23:49.342Z,8.10
2022-11-19T17:26:21.925Z,8.10
2022-11-19T17:28:51.155Z,8.00
2022-11-19T17:31:26.740Z,8.00
2022-11-19T17:34:07.910Z,8.00
2022-11-19T17:36:39.892Z,7.90
2022-11-19T17:39:14.686Z,8.00
2022-11-19T17:42:01.243Z,8.00
2022-11-19T17:44:36.112Z,7.90
2022-11-19T17:49:57.377Z,7.90
2022-11-19T17:52:25.261Z,7.90
2022-11-19T17:54:53.902Z,7.90
2022-11-19T17:57:20.898Z,8.00
2022-11-19T17:59:47.729Z,7.90
2022-11-19T18:02:16.852Z,7.90
2022-11-19T18:04:47.160Z,7.80
2022-11-19T18:07:14.303Z,7.90
2022-11-19T18:09:43.292Z,7.90
2022-11-19T18:12:17.778Z,7.90
2022-11-19T18:14:45.077Z,7.90
2022-11-19T18:17:15.348Z,7.80
2022-11-19T18:19:42.176Z,7.80
2022-11-19T18:22:18.222Z,7.70
2022-11-19T18:24:50.205Z,7.60
2022-11-19T18:27:17.285Z,7.60
2022-11-19T18:29:44.060Z,7.70
2022-11-19T18:32:12.111Z,7.70
2022-11-19T18:34:41.229Z,7.80
2022-11-19T18:37:07.991Z,7.80
2022-11-19T18:39:34.836Z,7.70
2022-11-19T18:42:04.082Z,7.60
2022-11-19T18:44:33.513Z,7.50
2022-11-19T18:47:06.418Z,7.50
2022-11-19T18:49:34.916Z,7.50
2022-11-19T18:52:09.572Z,7.50
2022-11-19T18:54:36.611Z,7.50
2022-11-19T18:57:04.269Z,7.50
2022-11-19T18:59:31.030Z,7.50
2022-11-19T19:02:00.005Z,7.40
2022-11-19T19:04:26.855Z,7.40
2022-11-19T19:06:53.798Z,7.40
2022-11-19T19:09:21.119Z,7.30
2022-11-19T19:12:13.035Z,7.30
2022-11-19T19:14:41.047Z,7.40
2022-11-19T19:17:10.534Z,7.40
2022-11-19T19:19:37.543Z,7.30
2022-11-19T19:22:04.895Z,7.30
2022-11-19T19:24:32.530Z,7.30
2022-11-19T19:27:00.392Z,7.30
2022-11-19T19:29:27.571Z,7.30
2022-11-19T19:31:58.007Z,7.30
2022-11-19T19:34:24.807Z,7.30
2022-11-19T19:36:53.389Z,7.30
2022-11-19T19:39:23.168Z,7.40
2022-11-19T19:41:50.241Z,7.30
2022-11-19T19:44:19.213Z,7.30
2022-11-19T19:46:48.710Z,7.40
2022-11-19T19:49:15.777Z,7.40
2022-11-19T19:51:44.731Z,7.40
2022-11-19T19:54:13.661Z,7.40
2022-11-19T19:56:40.918Z,7.30
2022-11-19T19:59:11.455Z,7.30
2022-11-19T20:01:38.492Z,7.30
2022-11-19T20:04:08.262Z,7.40
2022-11-19T20:06:43.494Z,7.40
2022-11-19T20:09:10.417Z,7.50
2022-11-19T20:11:38.116Z,7.40
2022-11-19T20:14:07.609Z,7.40
2022-11-19T20:16:39.410Z,7.40
2022-11-19T20:19:08.851Z,7.40
2022-11-19T20:21:38.306Z,7.40
2022-11-19T20:24:11.898Z,7.40
2022-11-19T20:26:40.429Z,7.40
2022-11-19T20:29:07.413Z,7.40
2022-11-19T20:31:35.297Z,7.40
2022-11-19T20:34:04.169Z,7.40
2022-11-19T20:36:35.501Z,7.40
2022-11-19T20:39:03.049Z,7.50
2022-11-19T20:41:48.034Z,7.50
2022-11-19T20:44:22.721Z,7.50
2022-11-19T20:46:57.013Z,7.50
2022-11-19T20:49:26.198Z,7.50
2022-11-19T20:51:53.621Z,7.40
2022-11-19T20:54:23.679Z,7.40
2022-11-19T20:56:51.495Z,7.40
2022-11-19T20:59:19.114Z,7.40
2022-11-19T21:01:48.403Z,7.40
2022-11-19T21:04:17.244Z,7.40
2022-11-19T21:06:44.101Z,7.40
2022-11-19T21:09:15.638Z,7.50
2022-11-19T21:11:43.384Z,7.50
2022-11-19T21:14:10.154Z,7.50
2022-11-19T21:16:39.081Z,7.60
2022-11-19T21:19:05.839Z,7.70
2022-11-19T21:21:32.727Z,7.60
2022-11-19T21:24:01.875Z,7.60
2022-11-19T21:26:31.106Z,7.70
2022-11-19T21:28:59.328Z,7.70
2022-11-19T21:31:48.638Z,7.60
2022-11-19T21:34:23.189Z,7.50
2022-11-19T21:36:50.542Z,7.50
2022-11-19T21:39:18.074Z,7.60
2022-11-19T21:41:44.882Z,7.60
2022-11-19T21:44:14.305Z,7.60
2022-11-19T21:46:43.416Z,7.50
2022-11-19T21:49:10.065Z,7.60
2022-11-19T21:51:39.271Z,7.60
2022-11-19T21:54:06.147Z,7.60
2022-11-19T21:56:38.530Z,7.60
2022-11-19T21:59:07.894Z,7.60
2022-11-19T22:01:34.905Z,7.60
2022-11-19T22:04:01.729Z,7.60
2022-11-19T22:06:28.781Z,7.50
2022-11-19T22:09:01.432Z,7.50
2022-11-19T22:11:31.925Z,7.70
2022-11-19T22:14:04.113Z,7.70
2022-11-19T22:16:33.126Z,7.60
2022-11-19T22:19:02.549Z,7.60
2022-11-19T22:21:29.400Z,7.50
2022-11-19T22:23:58.794Z,7.50
2022-11-19T22:26:27.920Z,7.40
2022-11-19T22:28:54.825Z,7.30
2022-11-19T22:31:22.089Z,7.30
2022-11-19T22:33:53.800Z,7.30
2022-11-19T22:36:22.310Z,7.20
2022-11-19T22:38:52.014Z,7.30
2022-11-19T22:41:21.173Z,7.30
2022-11-19T22:43:48.087Z,7.30
2022-11-19T22:46:15.428Z,7.30
2022-11-19T22:48:44.870Z,7.30
2022-11-19T22:51:18.481Z,7.30
2022-11-19T22:53:48.047Z,7.20
2022-11-19T22:56:17.587Z,7.20
2022-11-19T22:58:46.898Z,7.30
2022-11-19T23:01:24.353Z,7.30
2022-11-19T23:03:51.904Z,7.30
2022-11-19T23:06:19.022Z,7.30
2022-11-19T23:08:46.154Z,7.20
2022-11-19T23:11:14.678Z,7.20
2022-11-19T23:13:43.996Z,7.20
2022-11-19T23:16:12.157Z,7.20
2022-11-19T23:18:50.109Z,7.20
2022-11-19T23:21:29.545Z,7.30
2022-11-19T23:23:58.192Z,7.20
2022-11-19T23:26:26.732Z,7.20
2022-11-19T23:28:53.950Z,7.20
2022-11-19T23:31:23.793Z,7.20
2022-11-19T23:33:58.801Z,7.20
2022-11-19T23:36:31.097Z,7.20
2022-11-19T23:38:58.900Z,7.20
2022-11-19T23:41:26.481Z,7.10
2022-11-19T23:43:56.181Z,7.10
2022-11-19T23:46:27.561Z,7.10
2022-11-19T23:48:58.028Z,7.10
2022-11-19T23:51:27.912Z,7.10
2022-11-19T23:53:57.662Z,7.10
2022-11-19T23:56:29.062Z,7.10
2022-11-19T23:58:56.542Z,7.10
